^^
Saratoga-Weather Station Historical Data
Daily Summary for September 21, 2021 Units:  English    Metric   Both
Daily Weekly Monthly Yearly Custom
  High: Low: Average:
Temperature: 82 °F 56.5 °F 67.8 °F
Dew Point: 68.4 °F 55.2 °F 61.2 °F
Humidity: 96% 54% 81%
Wind Speed: 6.9mph 0mph 0.6mph
Wind Gust: 9mph - -
Wind- - South
Pressure: 30.1 in 29.9 in -
Precipitation: 0.06 in    
Historical Graphs
 
 
Tabular Data for September 21, 2021
Time Temperature Dew Point Pressure Wind Wind Speed Wind Gust Humidity Rainfall Rate (Hourly) solar
00:04 59.5 °F 57.2 °F 30.1 in Calm   1 mph 92% 0 in 0 W/m2
00:09 59.5 °F 57.2 °F 30.1 in Calm     92% 0 in 0 W/m2
00:14 59.5 °F 57.2 °F 30.1 in Calm   1 mph 92% 0 in 0 W/m2
00:19 59.5 °F 57.2 °F 30.1 in Calm     92% 0 in 0 W/m2
00:24 59.5 °F 57.2 °F 30.1 in Calm     92% 0 in 0 W/m2
00:29 59.5 °F 57.2 °F 30.1 in Calm     92% 0 in 0 W/m2
00:34 59.5 °F 57.2 °F 30.1 in Calm     92% 0 in 0 W/m2
00:39 59.7 °F 57.4 °F 30.1 in Calm     92% 0 in 0 W/m2
00:44 59.5 °F 57.2 °F 30 in Calm     92% 0 in 0 W/m2
00:49 59.5 °F 57.2 °F 30 in Calm     92% 0 in 0 W/m2
00:54 59.5 °F 57.2 °F 30 in Calm     92% 0 in 0 W/m2
00:59 59.5 °F 57.2 °F 30 in Calm     92% 0 in 0 W/m2
01:04 59.5 °F 57.2 °F 30 in Calm   1 mph 92% 0 in 0 W/m2
01:09 59.5 °F 57.2 °F 30 in NE 0.9 mph 1 mph 92% 0 in 0 W/m2
01:14 59.4 °F 57 °F 30 in Calm     92% 0 in 0 W/m2
01:19 59.4 °F 57.4 °F 30 in Calm     93% 0 in 0 W/m2
01:24 59.4 °F 57.4 °F 30 in Calm     93% 0 in 0 W/m2
01:29 59.4 °F 57.4 °F 30 in Calm     93% 0 in 0 W/m2
01:34 59.2 °F 57.2 °F 30 in Calm     93% 0 in 0 W/m2
01:39 59.2 °F 57.2 °F 30 in Calm     93% 0 in 0 W/m2
01:44 58.8 °F 56.8 °F 30 in Calm     93% 0 in 0 W/m2
01:49 58.8 °F 56.8 °F 30 in Calm     93% 0 in 0 W/m2
01:54 58.6 °F 56.7 °F 30 in Calm     93% 0 in 0 W/m2
01:59 58.6 °F 56.7 °F 30 in Calm     93% 0 in 0 W/m2
02:04 58.6 °F 56.7 °F 30 in Calm     93% 0 in 0 W/m2
02:09 58.5 °F 56.5 °F 30 in Calm     93% 0 in 0 W/m2
02:14 58.5 °F 56.5 °F 30 in Calm     93% 0 in 0 W/m2
02:19 58.5 °F 56.7 °F 30 in Calm     94% 0 in 0 W/m2
02:24 58.3 °F 56.5 °F 30 in Calm     94% 0 in 0 W/m2
02:29 58.3 °F 56.5 °F 30 in Calm     94% 0 in 0 W/m2
02:34 58.3 °F 56.5 °F 30 in Calm     94% 0 in 0 W/m2
02:39 58.1 °F 56.3 °F 30 in Calm     94% 0 in 0 W/m2
02:44 57.9 °F 56.1 °F 30 in Calm     94% 0 in 0 W/m2
02:49 57.9 °F 56.1 °F 30 in Calm     94% 0 in 0 W/m2
02:54 57.9 °F 56.1 °F 30 in Calm     94% 0 in 0 W/m2
02:59 57.9 °F 56.1 °F 30 in Calm     94% 0 in 0 W/m2
03:04 57.7 °F 55.9 °F 30 in Calm     94% 0 in 0 W/m2
03:09 57.7 °F 55.9 °F 30 in Calm     94% 0 in 0 W/m2
03:14 57.7 °F 55.9 °F 30 in Calm     94% 0 in 0 W/m2
03:19 57.7 °F 55.9 °F 30 in Calm     94% 0 in 0 W/m2
03:24 57.7 °F 56.3 °F 30 in Calm     95% 0 in 0 W/m2
03:29 57.7 °F 56.3 °F 30 in Calm     95% 0 in 0 W/m2
03:34 57.6 °F 56.1 °F 30 in Calm     95% 0 in 0 W/m2
03:39 57.6 °F 56.1 °F 30 in Calm     95% 0 in 0 W/m2
03:44 57.6 °F 56.1 °F 30 in Calm     95% 0 in 0 W/m2
03:49 57.6 °F 56.1 °F 30 in Calm     95% 0 in 0 W/m2
03:54 57.6 °F 56.1 °F 30 in Calm     95% 0 in 0 W/m2
03:59 57.6 °F 56.1 °F 30 in Calm     95% 0 in 0 W/m2
04:04 57.6 °F 56.1 °F 30 in Calm     95% 0 in 0 W/m2
04:09 57.6 °F 56.1 °F 30 in Calm     95% 0 in 0 W/m2
04:14 57.6 °F 56.1 °F 30 in Calm     95% 0 in 0 W/m2
04:19 57.6 °F 56.1 °F 30 in Calm     95% 0 in 0 W/m2
04:24 57.6 °F 56.1 °F 30 in Calm     95% 0 in 0 W/m2
04:29 57.6 °F 56.1 °F 30 in Calm     95% 0 in 0 W/m2
04:34 57.6 °F 56.1 °F 30 in Calm     95% 0 in 0 W/m2
04:39 57.6 °F 56.1 °F 30 in Calm     95% 0 in 0 W/m2
04:44 57.6 °F 56.1 °F 30 in Calm     95% 0 in 0 W/m2
04:49 57.6 °F 56.1 °F 30 in Calm     95% 0 in 0 W/m2
04:54 57.6 °F 56.1 °F 30 in Calm     95% 0 in 0 W/m2
04:59 57.6 °F 56.1 °F 30 in Calm     95% 0 in 0 W/m2
05:04 57.6 °F 56.1 °F 30 in Calm     95% 0 in 0 W/m2
05:09 57.4 °F 55.9 °F 30 in Calm     95% 0 in 0 W/m2
05:14 57.4 °F 55.9 °F 30 in Calm     95% 0 in 0 W/m2
05:19 57.2 °F 55.8 °F 30 in Calm     95% 0 in 0 W/m2
05:24 57.4 °F 55.9 °F 30 in Calm     95% 0 in 0 W/m2
05:29 57.4 °F 55.9 °F 30 in Calm     95% 0 in 0 W/m2
05:34 57.4 °F 55.9 °F 30 in Calm     95% 0 in 0 W/m2
05:39 57.4 °F 56.3 °F 30 in Calm     96% 0 in 0 W/m2
05:44 57.4 °F 55.9 °F 30 in Calm     95% 0 in 0 W/m2
05:49 57.4 °F 55.9 °F 30 in Calm     95% 0 in 0 W/m2
05:54 57.2 °F 55.8 °F 30 in Calm     95% 0 in 0 W/m2
05:59 57.2 °F 55.8 °F 30 in Calm     95% 0 in 0 W/m2
06:04 57 °F 55.6 °F 30 in Calm     95% 0 in 0 W/m2
06:09 57 °F 55.6 °F 30 in Calm     95% 0 in 0 W/m2
06:14 57 °F 55.6 °F 30 in Calm     95% 0 in 0 W/m2
06:19 56.8 °F 55.4 °F 30 in Calm     95% 0 in 0 W/m2
06:24 56.8 °F 55.4 °F 30 in Calm     95% 0 in 0 W/m2
06:29 56.8 °F 55.4 °F 30 in Calm     95% 0 in 0 W/m2
06:34 56.8 °F 55.4 °F 30 in Calm     95% 0 in 0 W/m2
06:39 56.7 °F 55.2 °F 30 in Calm     95% 0 in 0 W/m2
06:44 56.7 °F 55.2 °F 30 in Calm     95% 0 in 5 W/m2
06:50 56.7 °F 55.2 °F 30 in Calm     95% 0 in 7 W/m2
06:55 56.7 °F 55.6 °F 30 in Calm     96% 0 in 11 W/m2
07:00 56.5 °F 55.4 °F 30 in Calm     96% 0 in 12 W/m2
07:05 56.5 °F 55.4 °F 30 in Calm     96% 0 in 16 W/m2
07:10 56.7 °F 55.6 °F 30 in Calm     96% 0 in 19 W/m2
07:15 56.7 °F 55.6 °F 30 in Calm     96% 0 in 23 W/m2
07:20 56.7 °F 55.6 °F 30 in Calm     96% 0 in 26 W/m2
07:25 56.7 °F 55.6 °F 30 in Calm     96% 0 in 30 W/m2
07:30 56.7 °F 55.6 °F 30 in Calm     96% 0 in 33 W/m2
07:35 56.8 °F 55.8 °F 30 in Calm     96% 0 in 35 W/m2
07:40 56.8 °F 55.8 °F 30 in Calm     96% 0 in 37 W/m2
07:45 57 °F 55.9 °F 30 in Calm     96% 0 in 40 W/m2
07:50 57.2 °F 56.1 °F 30 in Calm     96% 0 in 42 W/m2
07:55 57.6 °F 56.5 °F 30 in Calm     96% 0 in 44 W/m2
08:00 57.7 °F 56.7 °F 30 in Calm     96% 0 in 47 W/m2
08:05 57.9 °F 56.8 °F 30 in Calm     96% 0 in 49 W/m2
08:10 58.1 °F 57 °F 30 in Calm     96% 0 in 51 W/m2
08:15 58.5 °F 57.4 °F 30 in Calm     96% 0 in 53 W/m2
08:20 58.6 °F 57.6 °F 30 in Calm     96% 0 in 54 W/m2
08:25 59 °F 57.9 °F 30 in Calm     96% 0 in 58 W/m2
08:30 59.5 °F 58.5 °F 30 in Calm     96% 0 in 104 W/m2
08:35 60.1 °F 58.6 °F 30 in Calm     95% 0 in 169 W/m2
08:40 60.6 °F 59.2 °F 30 in Calm     95% 0 in 206 W/m2
08:45 61.5 °F 59.5 °F 30 in Calm     93% 0 in 218 W/m2
08:50 62.2 °F 59.5 °F 30 in Calm     91% 0 in 232 W/m2
08:55 63 °F 59.7 °F 30 in Calm     89% 0 in 246 W/m2
09:00 63.1 °F 59.2 °F 30 in Calm     87% 0 in 264 W/m2
09:05 63.3 °F 59 °F 30 in Calm     86% 0 in 269 W/m2
09:10 63.7 °F 59 °F 30 in Calm     85% 0 in 257 W/m2
09:15 63.7 °F 58.8 °F 30 in Calm     84% 0 in 294 W/m2
09:20 63.7 °F 59 °F 30 in Calm     85% 0 in 302 W/m2
09:25 63.9 °F 59 °F 30 in Calm     84% 0 in 114 W/m2
09:30 64 °F 59.2 °F 30 in Calm     84% 0 in 91 W/m2
09:35 64.4 °F 59.5 °F 30 in Calm     84% 0 in 302 W/m2
09:40 64.6 °F 59.4 °F 30 in Calm     83% 0 in 364 W/m2
09:45 64.9 °F 59.7 °F 30 in Calm     83% 0 in 380 W/m2
09:50 65.1 °F 59.9 °F 30 in Calm     83% 0 in 401 W/m2
09:55 65.8 °F 60.6 °F 30 in Calm     83% 0 in 411 W/m2
10:00 66.2 °F 60.3 °F 30 in ENE 2 mph 4 mph 81% 0 in 422 W/m2
10:05 66.6 °F 60.3 °F 30 in Calm   1 mph 80% 0 in 425 W/m2
10:10 66.9 °F 60.3 °F 30 in Calm   4 mph 79% 0 in 434 W/m2
10:15 67.3 °F 60.6 °F 30 in East 0.9 mph 1 mph 79% 0 in 448 W/m2
10:20 67.8 °F 60.6 °F 30 in NNE 0.9 mph 3 mph 78% 0 in 469 W/m2
10:25 68.2 °F 60.6 °F 30 in NE 0.9 mph 2 mph 77% 0 in 475 W/m2
10:30 68.4 °F 60.8 °F 30 in East 2 mph 3 mph 77% 0 in 494 W/m2
10:35 68.7 °F 60.8 °F 30 in Calm   1 mph 76% 0 in 508 W/m2
10:40 69.1 °F 61.2 °F 30 in NNE 0.9 mph 4 mph 76% 0 in 522 W/m2
10:45 69.3 °F 61.3 °F 30 in ESE 0.9 mph 2 mph 76% 0 in 529 W/m2
10:50 69.4 °F 61.2 °F 30 in Calm   4 mph 75% 0 in 538 W/m2
10:55 69.8 °F 61.5 °F 30 in East 2 mph 4 mph 75% 0 in 554 W/m2
11:01 70.2 °F 61.9 °F 30 in Calm   1 mph 75% 0 in 561 W/m2
11:06 70.5 °F 61.9 °F 30 in NE 0.9 mph 3 mph 74% 0 in 577 W/m2
11:11 70.5 °F 61.5 °F 30 in Calm   1 mph 73% 0 in 568 W/m2
11:16 70.5 °F 61.9 °F 30 in ENE 2 mph 4 mph 74% 0 in 599 W/m2
11:21 70.9 °F 62.6 °F 30 in Calm   1 mph 75% 0 in 606 W/m2
11:26 71.4 °F 62.2 °F 30 in NE 0.9 mph 2 mph 73% 0 in 617 W/m2
11:31 71.8 °F 62.2 °F 30 in ESE 0.9 mph 4 mph 72% 0 in 628 W/m2
11:36 71.8 °F 61.9 °F 30 in Calm   2 mph 71% 0 in 621 W/m2
11:41 72.3 °F 62.4 °F 30 in SSE 2 mph 4 mph 71% 0 in 640 W/m2
11:46 72.7 °F 62.8 °F 30 in NNE 2 mph 3 mph 71% 0 in 649 W/m2
11:51 72.7 °F 62.2 °F 30 in Calm   2 mph 70% 0 in 652 W/m2
11:56 72.7 °F 62.2 °F 30 in NE 2 mph 3 mph 70% 0 in 650 W/m2
12:01 72.9 °F 62.1 °F 30 in ENE 2 mph 3 mph 69% 0 in 663 W/m2
12:06 73 °F 62.2 °F 30 in NE 0.9 mph 2 mph 69% 0 in 668 W/m2
12:11 73.4 °F 62.2 °F 30 in Calm   3 mph 68% 0 in 684 W/m2
12:16 73.8 °F 63 °F 30 in ENE 0.9 mph 1 mph 69% 0 in 693 W/m2
12:21 74.1 °F 62.4 °F 30 in North 0.9 mph 2 mph 67% 0 in 701 W/m2
12:26 74.7 °F 63.9 °F 30 in Calm   1 mph 69% 0 in 708 W/m2
12:31 75 °F 63.3 °F 30 in SSW 0.9 mph 3 mph 67% 0 in 710 W/m2
12:36 75.4 °F 62.8 °F 30 in East 0.9 mph 4 mph 65% 0 in 696 W/m2
12:41 75.6 °F 63.3 °F 30 in NW 4 mph 4 mph 66% 0 in 715 W/m2
12:46 75.7 °F 63.5 °F 30 in ESE 2 mph 6 mph 66% 0 in 712 W/m2
12:51 76.1 °F 63 °F 30 in East 0.9 mph 2 mph 64% 0 in 707 W/m2
12:56 76.3 °F 63.1 °F 30 in Calm   6 mph 64% 0 in 707 W/m2
13:01 76.5 °F 63.3 °F 30 in Calm     64% 0 in 691 W/m2
13:06 76.8 °F 63.7 °F 30 in ENE 2 mph 6 mph 64% 0 in 726 W/m2
13:11 76.8 °F 63.3 °F 30 in ENE 4.9 mph 5 mph 63% 0 in 733 W/m2
13:16 76.5 °F 62.4 °F 30 in Calm   3 mph 62% 0 in 742 W/m2
13:21 76.3 °F 63.7 °F 30 in WSW 4 mph 4 mph 65% 0 in 761 W/m2
13:26 75.9 °F 63.3 °F 30 in WNW 0.9 mph 3 mph 65% 0 in 765 W/m2
13:31 76.5 °F 63.9 °F 30 in NE 4 mph 5 mph 65% 0 in 752 W/m2
13:36 76.8 °F 63.7 °F 30 in SSE 0.9 mph 3 mph 64% 0 in 773 W/m2
13:41 77.2 °F 62.2 °F 30 in NE 2 mph 5 mph 60% 0 in 763 W/m2
13:46 77.2 °F 64 °F 30 in East 0.9 mph 3 mph 64% 0 in 759 W/m2
13:51 77.5 °F 63 °F 30 in East 4 mph 4 mph 61% 0 in 752 W/m2
13:56 77.5 °F 63 °F 30 in East 0.9 mph 2 mph 61% 0 in 752 W/m2
14:01 77.5 °F 62.6 °F 30 in ENE 2 mph 7 mph 60% 0 in 768 W/m2
14:06 77.7 °F 62.8 °F 30 in Calm   3 mph 60% 0 in 766 W/m2
14:11 77.9 °F 62.4 °F 30 in WNW 0.9 mph 1 mph 59% 0 in 744 W/m2
14:16 78.3 °F 62.2 °F 30 in ENE 0.9 mph 4 mph 58% 0 in 752 W/m2
14:21 78.3 °F 61.7 °F 30 in Calm   2 mph 57% 0 in 744 W/m2
14:26 78.4 °F 62.4 °F 30 in SSE 0.9 mph 2 mph 58% 0 in 744 W/m2
14:31 78.6 °F 63.5 °F 30 in SSE 0.9 mph 2 mph 60% 0 in 722 W/m2
14:36 79.2 °F 63.7 °F 30 in SE 2.9 mph 3 mph 59% 0 in 737 W/m2
14:41 79.3 °F 62.8 °F 30 in North 0.9 mph 4 mph 57% 0 in 724 W/m2
14:46 79.5 °F 63 °F 30 in East 2 mph 3 mph 57% 0 in 712 W/m2
14:52 79.5 °F 63.5 °F 30 in SW 2.9 mph 4 mph 58% 0 in 712 W/m2
14:57 79.2 °F 63.1 °F 30 in West 6.9 mph 7 mph 58% 0 in 657 W/m2
15:02 78.3 °F 63.7 °F 30 in SW 0.9 mph 4 mph 61% 0 in 663 W/m2
15:07 78.4 °F 62.4 °F 30 in ENE 2 mph 4 mph 58% 0 in 700 W/m2
15:12 79 °F 63.9 °F 30 in West 0.9 mph 1 mph 60% 0 in 689 W/m2
15:17 79.3 °F 63.3 °F 30 in ESE 0.9 mph 4 mph 58% 0 in 666 W/m2
15:22 79.9 °F 62.8 °F 30 in NW 2 mph 6 mph 56% 0 in 568 W/m2
15:27 79.7 °F 64.6 °F 30 in ESE 0.9 mph 7 mph 60% 0 in 708 W/m2
15:32 79.9 °F 64.2 °F 30 in Calm   2 mph 59% 0 in 677 W/m2
15:37 80.1 °F 62.4 °F 30 in Calm   7 mph 55% 0 in 636 W/m2
15:42 80.2 °F 63.1 °F 30 in ESE 2 mph 4 mph 56% 0 in 647 W/m2
15:47 80.2 °F 63.7 °F 30 in ESE 0.9 mph 3 mph 57% 0 in 645 W/m2
15:52 80.4 °F 63.9 °F 30 in SSW 0.9 mph 2 mph 57% 0 in 677 W/m2
15:57 80.8 °F 63.1 °F 30 in NE 2 mph 4 mph 55% 0 in 664 W/m2
16:02 80.6 °F 63.5 °F 30 in WNW 2 mph 2 mph 56% 0 in 635 W/m2
16:07 81 °F 63.9 °F 30 in NE 0.9 mph 4 mph 56% 0 in 624 W/m2
16:12 81.1 °F 63.5 °F 30 in East 0.9 mph 3 mph 55% 0 in 587 W/m2
16:17 80.8 °F 63.7 °F 30 in South 2 mph 3 mph 56% 0 in 555 W/m2
16:22 80.8 °F 65.1 °F 30 in SE 0.9 mph 2 mph 59% 0 in 578 W/m2
16:27 81 °F 63.3 °F 30 in WNW 2.9 mph 3 mph 55% 0 in 541 W/m2
16:32 81 °F 63.9 °F 30 in SE 0.9 mph 2 mph 56% 0 in 536 W/m2
16:37 81 °F 63.9 °F 30 in East 2 mph 4 mph 56% 0 in 520 W/m2
16:42 81.1 °F 63 °F 30 in ENE 0.9 mph 2 mph 54% 0 in 480 W/m2
16:47 81.1 °F 64.9 °F 30 in West 0.9 mph 3 mph 58% 0 in 461 W/m2
16:52 81.3 °F 64 °F 30 in NE 0.9 mph 3 mph 56% 0 in 436 W/m2
16:57 81.3 °F 64.6 °F 30 in West 2 mph 2 mph 57% 0 in 499 W/m2
17:02 81.5 °F 66.2 °F 30 in Calm   1 mph 60% 0 in 396 W/m2
17:07 81.7 °F 64.9 °F 30 in South 0.9 mph 1 mph 57% 0 in 345 W/m2
17:12 81.5 °F 63.9 °F 30 in Calm   3 mph 55% 0 in 420 W/m2
17:17 81.3 °F 63.7 °F 30 in Calm   2 mph 55% 0 in 350 W/m2
17:22 81.7 °F 66 °F 30 in Calm   1 mph 59% 0 in 392 W/m2
17:27 81.9 °F 66.2 °F 30 in SE 0.9 mph 1 mph 59% 0 in 330 W/m2
17:32 81.9 °F 66.2 °F 30 in Calm   1 mph 59% 0 in 327 W/m2
17:37 82 °F 65.8 °F 30 in SSW 0.9 mph 1 mph 58% 0 in 304 W/m2
17:42 82 °F 66.4 °F 30 in Calm     59% 0 in 322 W/m2
17:47 81.9 °F 67.6 °F 30 in Calm   1 mph 62% 0 in 165 W/m2
17:52 81.5 °F 68.2 °F 30 in Calm   1 mph 64% 0 in 313 W/m2
17:57 81.3 °F 66.6 °F 30 in Calm     61% 0 in 186 W/m2
18:02 81.1 °F 66.9 °F 30 in Calm     62% 0 in 174 W/m2
18:07 81 °F 68 °F 30 in Calm     65% 0 in 151 W/m2
18:12 80.4 °F 68 °F 30 in Calm     66% 0 in 144 W/m2
18:17 80.2 °F 68.4 °F 30 in Calm     67% 0 in 151 W/m2
18:22 79.7 °F 67.8 °F 30 in SSE 0.9 mph 1 mph 67% 0 in 135 W/m2
18:27 79.2 °F 67.6 °F 30 in SSE 0.9 mph 1 mph 68% 0 in 116 W/m2
18:32 78.6 °F 67.6 °F 30 in Calm   1 mph 69% 0 in 111 W/m2
18:37 78.3 °F 67.6 °F 30 in Calm     70% 0 in 95 W/m2
18:42 77.7 °F 67.6 °F 30 in Calm   1 mph 71% 0 in 69 W/m2
18:47 77.5 °F 67.8 °F 30 in Calm   2 mph 72% 0 in 60 W/m2
18:52 77.2 °F 67.5 °F 30 in Calm   1 mph 72% 0 in 58 W/m2
18:57 76.8 °F 67.5 °F 30 in SSE 0.9 mph 1 mph 73% 0 in 70 W/m2
19:02 76.6 °F 67.3 °F 30 in Calm     73% 0 in 70 W/m2
19:07 76.5 °F 67.6 °F 30 in SSE 0.9 mph 1 mph 74% 0 in 49 W/m2
19:12 76.1 °F 67.3 °F 30 in SSE 0.9 mph 1 mph 74% 0 in 28 W/m2
19:17 75.7 °F 66.4 °F 30 in SSE 0.9 mph 1 mph 73% 0 in 14 W/m2
19:22 75.4 °F 66.9 °F 30 in SSE 2 mph 2 mph 75% 0 in 16 W/m2
19:27 74.8 °F 67.5 °F 30 in SSE 0.9 mph 2 mph 78% 0 in 16 W/m2
19:32 74.5 °F 67.5 °F 30 in West 2 mph 3 mph 79% 0 in 19 W/m2
19:37 73.6 °F 67.1 °F 30 in WSW 0.9 mph 3 mph 80% 0 in 18 W/m2
19:42 73 °F 66.9 °F 30 in Calm   1 mph 81% 0 in 18 W/m2
19:47 72.9 °F 67.1 °F 30 in WSW 0.9 mph 2 mph 82% 0 in 18 W/m2
19:52 72.3 °F 66.9 °F 30 in Calm   1 mph 83% 0 in 16 W/m2
19:57 72.1 °F 66.7 °F 30 in WSW 0.9 mph 1 mph 83% 0 in 14 W/m2
20:02 72 °F 66.6 °F 30 in Calm     83% 0 in 14 W/m2
20:07 71.6 °F 66.2 °F 30 in West 2 mph 4 mph 83% 0 in 16 W/m2
20:12 71.4 °F 66 °F 30 in WNW 2 mph 2 mph 83% 0 in 19 W/m2
20:17 71.4 °F 66 °F 30 in Calm   4 mph 83% 0 in 19 W/m2
20:22 71.2 °F 65.8 °F 30 in Calm     83% 0 in 12 W/m2
20:27 71.2 °F 65.8 °F 30 in Calm   1 mph 83% 0 in 5 W/m2
20:32 71.1 °F 66 °F 30 in Calm     84% 0 in 0 W/m2
20:37 70.9 °F 65.8 °F 30 in Calm   1 mph 84% 0 in 0 W/m2
20:42 70.5 °F 65.5 °F 30 in Calm     84% 0 in 0 W/m2
20:47 70.5 °F 65.8 °F 30 in Calm     85% 0 in 0 W/m2
20:52 70.3 °F 65.7 °F 30 in West 2 mph 3 mph 85% 0 in 0 W/m2
20:57 70.3 °F 65.7 °F 30 in Calm   1 mph 85% 0 in 0 W/m2
21:02 70.3 °F 66 °F 30 in WNW 0.9 mph 2 mph 86% 0 in 0 W/m2
21:07 70.2 °F 65.8 °F 30 in West 0.9 mph 2 mph 86% 0 in 0 W/m2
21:12 70.2 °F 65.8 °F 30 in Calm     86% 0 in 0 W/m2
21:17 70 °F 65.7 °F 30 in Calm     86% 0 in 0 W/m2
21:22 69.8 °F 65.5 °F 30 in Calm   1 mph 86% 0 in 0 W/m2
21:27 69.6 °F 65.3 °F 30 in Calm     86% 0 in 0 W/m2
21:32 69.6 °F 65.7 °F 30 in Calm   1 mph 87% 0 in 0 W/m2
21:37 69.4 °F 65.7 °F 30 in Calm   1 mph 88% 0.01 in 0 W/m2
21:42 69.1 °F 65.1 °F 29.9 in West 0.9 mph 2 mph 87% 0.01 in 0 W/m2
21:47 68.7 °F 65.3 °F 29.9 in Calm   1 mph 89% 0.02 in 0 W/m2
21:52 68.5 °F 65.1 °F 30 in Calm   2 mph 89% 0.02 in 0 W/m2
21:57 68.2 °F 65.1 °F 30 in Calm     90% 0.02 in 0 W/m2
22:02 67.6 °F 64.6 °F 30 in West 0.9 mph 2 mph 90% 0.02 in 0 W/m2
22:07 67.5 °F 64.8 °F 30 in Calm   4 mph 91% 0.03 in 0 W/m2
22:12 66.9 °F 64.2 °F 30 in West 2 mph 2 mph 91% 0.03 in 0 W/m2
22:18 66.7 °F 64 °F 30 in West 2.9 mph 5 mph 91% 0.04 in 0 W/m2
22:23 66.4 °F 63.7 °F 30 in West 4 mph 8 mph 91% 0.04 in 0 W/m2
22:28 66.7 °F 63.7 °F 30 in WSW 4 mph 9 mph 90% 0.05 in 0 W/m2
22:33 67.1 °F 63.7 °F 30 in WNW 2.9 mph 3 mph 89% 0.06 in 0 W/m2
22:38 67.3 °F 63.9 °F 30 in WNW 2.9 mph 7 mph 89% 0.05 in 0 W/m2
22:43 67.3 °F 64.2 °F 30 in WSW 6.9 mph 7 mph 90% 0.05 in 0 W/m2
22:48 67.3 °F 64.2 °F 30 in West 2 mph 4 mph 90% 0.04 in 0 W/m2
22:53 67.3 °F 64.2 °F 30 in West 2 mph 2 mph 90% 0.05 in 0 W/m2
22:58 67.1 °F 64.4 °F 30 in WSW 0.9 mph 2 mph 91% 0.05 in 0 W/m2
23:03 66.9 °F 64.2 °F 30 in WSW 0.9 mph 4 mph 91% 0.04 in 0 W/m2
23:08 66.9 °F 64.6 °F 30 in WSW 0.9 mph 3 mph 92% 0.03 in 0 W/m2
23:13 66.9 °F 64.6 °F 30 in WSW 2 mph 3 mph 92% 0.03 in 0 W/m2
23:18 66.7 °F 64.4 °F 30 in West 2 mph 6 mph 92% 0.02 in 0 W/m2
23:23 66.7 °F 64.4 °F 30 in WSW 2 mph 4 mph 92% 0.02 in 0 W/m2
23:28 66.7 °F 64.4 °F 30 in SSE 0.9 mph 6 mph 92% 0.02 in 0 W/m2
23:33 66.6 °F 64.2 °F 30 in SW 0.9 mph 1 mph 92% 0.01 in 0 W/m2
23:38 66.6 °F 64.2 °F 30 in NW 0.9 mph 2 mph 92% 0.01 in 0 W/m2
23:43 66.4 °F 64 °F 30 in NW 0.9 mph 2 mph 92% 0.01 in 0 W/m2
23:48 66.4 °F 64 °F 30 in Calm   3 mph 92% 0.01 in 0 W/m2
23:53 66.4 °F 64 °F 30 in West 2 mph 2 mph 92% 0 in 0 W/m2
23:58 66 °F 63.7 °F 30 in Calm   2 mph 92% 0 in 0 W/m2
Juneau County Weather
Compliments of Weather Underground - 4 mb